Etusivu
METAR-TAF:

METAR-TAF

Lentoasemat :

Alattio, Norja

Alattion lentoasema

Leveyspiiri: 69-59N, Pituuspiiri: 023-22E, korkeus merenpinnasta: 0 m

Tämänhetkinen sää

Tämä raportti tehtiin 20 minuuttia sitten, kello 22.50 UTC
Tuuli 2 kn etelästä/kaakosta
Lämpötila -7°C
Kosteus 93%
Ilmanpaine 1000 hPa
Näkyvyys 10 km tai enemmän
Muutamia pilviä 800 ft:n korkeudessa
Hajonneita pilviä 1200 ft:n korkeudessa

METAR: ENAT 172250Z 16002KT 9999 FEW008 BKN012 M07/M08 Q1000 RMK WIND 700FT 13005KT

Aika: 00:10 (23:10 UTC)

Sääennuste

Tämä raportti tehtiin 3 tuntia ja 10 minuuttia sitten, kello 20.00 UTC
Ennuste voimassa 17. päivästä klo 21 UTC - 17. päivään klo 24 UTC
Tuuli 8 kn etelästä/kaakosta
Näkyvyys 10 km tai enemmän
Muutamia pilviä 800 ft:n korkeudessa
Ajoittain
17. päivästä klo 21 UTC - 17. päivään klo 24 UTC
Hajonneita pilviä 800 ft:n korkeudessa

TAF: ENAT 172000Z 1721/1724 16008KT 9999 FEW008 TEMPO 1721/1724 BKN008

Säähavainnot ja -ennusteet yli 4000 lentoasemalta (METAR- ja TAF-raportit).

Käytössä olevat sääasemat on merkitty karttaan keltaisilla ja punaisilla pisteillä.

Aseta hiiri pisteen päälle nähdäksesi sääaseman nimen.

Klikkaa sitten nähdäksesi säähavainnot ja -ennusteet.

Kartan vaihtaminen: klikkaa mustalla rastilla varustettuja vihreitä pisteitä, niin voit zoomata sisään; viivalla varustettua vihreää pistettä, niin voit zoomata ulos tai vihreitä nuolia, niin pääset viereisille kartoille.


METAR-TAF: